Time;durP1;ratioP1;P1;durP2;ratioP2;P2;SDS_P1;SDS_P2;PMS_P1;PMS_P2;Temp;Humidity;BMP_temperature;BMP_pressure;BME280_temperature;BME280_humidity;BME280_pressure;Samples;Min_cycle;Max_cycle;Signal;HPM_P1;HPM_P2
2022/10/18 00:06:29;;;;;;;2.90;1.60;;;;;;;;;;20881725;28;20223;-73
2022/10/18 00:16:31;;;;;;;2.20;1.50;;;;;;;;;;20880154;28;20215;-73
2022/10/18 00:26:33;;;;;;;2.70;1.60;;;;;;;;;;20880928;28;20283;-73
2022/10/18 00:36:35;;;;;;;1.63;1.10;;;;;;;;;;20863702;28;20772;-73
2022/10/18 00:46:38;;;;;;;4.27;1.27;;;;;;;;;;20878330;28;20641;-73
2022/10/18 00:56:43;;;;;;;2.43;1.20;;;17.70;99.90;;;;;;20910302;28;20290;-73
2022/10/18 01:07:07;;;;;;;2.20;1.20;;;;;;;;;;20861020;28;20789;-73
2022/10/18 01:17:15;;;;;;;3.83;1.20;;;;;;;;;;20891962;28;20287;-73
2022/10/18 01:27:29;;;;;;;2.90;1.40;;;17.70;99.90;;;;;;20874374;28;20252;-73
2022/10/18 01:37:31;;;;;;;2.27;1.43;;;;;;;;;;20874924;28;20294;-73
2022/10/18 01:47:34;;;;;;;1.83;1.23;;;;;;;;;;20873596;28;20252;-72
2022/10/18 01:57:39;;;;;;;3.07;1.20;;;;;;;;;;20858831;28;20288;-72
2022/10/18 02:07:47;;;;;;;2.63;1.50;;;;;;;;;;20859959;28;20256;-73
2022/10/18 02:17:49;;;;;;;2.60;1.33;;;17.30;99.90;;;;;;20888246;28;20210;-73
2022/10/18 02:27:51;;;;;;;1.70;1.20;;;17.20;99.90;;;;;;20854915;28;20232;-73
2022/10/18 02:37:54;;;;;;;4.43;1.17;;;17.10;99.90;;;;;;20870272;28;20264;-73
2022/10/18 02:47:56;;;;;;;3.17;1.13;;;;;;;;;;20869884;28;20217;-72
2022/10/18 02:57:58;;;;;;;2.83;1.33;;;;;;;;;;20861998;28;20241;-73
2022/10/18 03:08:00;;;;;;;3.23;1.30;;;;;;;;;;20868445;28;20222;-73
2022/10/18 03:18:02;;;;;;;2.17;1.47;;;;;;;;;;20869078;28;20573;-73
2022/10/18 03:28:04;;;;;;;3.40;1.20;;;;;;;;;;20869031;28;20218;-73
2022/10/18 03:38:06;;;;;;;3.07;1.40;;;;;;;;;;20868057;28;20719;-73
2022/10/18 03:48:07;;;;;;;2.33;1.13;;;;;;;;;;20848309;28;20560;-70
2022/10/18 03:58:09;;;;;;;2.20;1.20;;;;;;;;;;20833778;28;20222;-70
2022/10/18 04:08:12;;;;;;;2.50;1.47;;;;;;;;;;20897148;28;20238;-73
2022/10/18 04:18:14;;;;;;;2.77;1.50;;;;;;;;;;20871488;28;20230;-74
2022/10/18 04:28:17;;;;;;;5.63;1.87;;;;;;;;;;20879821;28;20708;-73
2022/10/18 04:38:19;;;;;;;2.00;1.40;;;;;;;;;;20864899;28;20596;-73
2022/10/18 04:48:21;;;;;;;3.60;1.50;;;;;;;;;;20859653;28;20590;-73
2022/10/18 04:58:24;;;;;;;2.33;1.37;;;;;;;;;;20794193;28;20215;-73
2022/10/18 05:08:26;;;;;;;3.57;1.70;;;;;;;;;;20810276;28;20242;-73
2022/10/18 05:18:28;;;;;;;2.90;1.57;;;;;;;;;;20776112;28;20199;-73
2022/10/18 05:28:30;;;;;;;6.13;1.50;;;16.90;99.90;;;;;;20804916;28;20582;-73
2022/10/18 05:38:32;;;;;;;4.10;1.70;;;;;;;;;;20707035;28;20247;-73
2022/10/18 05:48:34;;;;;;;2.50;1.37;;;;;;;;;;20708693;28;20689;-73
2022/10/18 05:58:36;;;;;;;2.87;1.77;;;;;;;;;;20708117;28;20619;-73
2022/10/18 06:08:38;;;;;;;2.40;1.30;;;16.70;99.90;;;;;;20723666;28;20223;-73
2022/10/18 06:18:40;;;;;;;2.47;1.60;;;;;;;;;;20707505;28;20211;-73
2022/10/18 06:28:42;;;;;;;2.37;1.50;;;;;;;;;;20741269;28;20288;-73
2022/10/18 06:38:45;;;;;;;2.40;1.67;;;;;;;;;;20820706;28;20223;-74
2022/10/18 06:48:46;;;;;;;5.27;1.47;;;;;;;;;;20839280;28;20575;-74
2022/10/18 06:58:49;;;;;;;4.57;1.87;;;;;;;;;;20876966;28;20700;-74
2022/10/18 07:08:54;;;;;;;5.00;1.80;;;16.80;99.90;;;;;;20851295;28;20221;-74
2022/10/18 07:18:56;;;;;;;3.70;1.90;;;;;;;;;;20804221;28;20259;-74
2022/10/18 07:29:00;;;;;;;3.07;1.80;;;;;;;;;;20874164;28;20222;-73
2022/10/18 07:39:02;;;;;;;2.73;1.70;;;;;;;;;;20873931;28;20272;-73
2022/10/18 07:49:04;;;;;;;4.27;2.03;;;;;;;;;;20846398;28;20238;-72
2022/10/18 07:59:06;;;;;;;3.33;1.80;;;;;;;;;;20788526;28;20223;-72
2022/10/18 08:09:08;;;;;;;5.43;2.33;;;;;;;;;;20798197;28;20257;-73
2022/10/18 08:19:10;;;;;;;4.27;2.83;;;;;;;;;;20812347;28;20226;-74
2022/10/18 08:29:13;;;;;;;3.33;2.20;;;;;;;;;;20828046;28;20249;-73
2022/10/18 08:39:15;;;;;;;4.30;2.53;;;;;;;;;;20769928;28;20596;-73
2022/10/18 08:49:25;;;;;;;4.60;1.97;;;17.50;99.90;;;;;;20727577;28;20656;-73
2022/10/18 08:59:38;;;;;;;2.93;2.13;;;;;;;;;;20800676;22;20341;-71
2022/10/18 09:09:46;;;;;;;6.03;2.40;;;;;;;;;;20791644;28;20228;-71
2022/10/18 09:20:08;;;;;;;4.10;2.47;;;;;;;;;;20729497;28;20216;-72
2022/10/18 09:30:18;;;;;;;2.37;1.97;;;;;;;;;;20739540;28;20250;-71
2022/10/18 09:40:23;;;;;;;2.80;2.20;;;;;;;;;;20734122;28;20207;-71
2022/10/18 09:50:29;;;;;;;2.50;2.00;;;;;;;;;;20729241;28;20219;-71
2022/10/18 10:00:37;;;;;;;3.27;2.20;;;19.20;99.90;;;;;;20696727;28;20241;-71
2022/10/18 10:10:40;;;;;;;5.70;2.10;;;;;;;;;;20735216;28;20233;-71
2022/10/18 10:20:43;;;;;;;4.40;1.60;;;;;;;;;;20735614;28;20210;-71
2022/10/18 10:30:45;;;;;;;2.07;1.50;;;;;;;;;;20736629;28;20244;-71
2022/10/18 10:40:51;;;;;;;1.97;1.23;;;19.20;99.90;;;;;;20737646;28;20690;-71
2022/10/18 10:51:06;;;;;;;2.03;1.10;;;;;;;;;;20711082;28;20213;-71
2022/10/18 11:01:19;;;;;;;2.53;1.10;;;;;;;;;;20743466;28;20228;-71
2022/10/18 11:11:27;;;;;;;1.67;0.90;;;18.90;99.90;;;;;;20743516;28;20230;-71
2022/10/18 11:21:30;;;;;;;1.37;0.80;;;18.80;99.90;;;;;;20670950;28;20206;-71
2022/10/18 11:31:32;;;;;;;1.30;0.73;;;;;;;;;;20669181;28;20269;-71
2022/10/18 11:41:38;;;;;;;1.83;0.67;;;;;;;;;;20651502;28;20244;-72
2022/10/18 11:51:43;;;;;;;1.40;0.60;;;;;;;;;;20680527;28;20787;-70
2022/10/18 12:02:03;;;;;;;0.97;0.70;;;;;;;;;;20740646;28;20586;-70
2022/10/18 12:12:19;;;;;;;1.70;0.83;;;;;;;;;;20731741;28;20214;-70
2022/10/18 12:22:30;;;;;;;1.40;0.80;;;;;;;;;;20742073;28;20584;-70
2022/10/18 12:32:35;;;;;;;0.93;0.60;;;19.20;99.90;;;;;;20746065;28;20259;-70
2022/10/18 12:42:44;;;;;;;1.17;0.70;;;;;;;;;;20744341;28;20264;-70
2022/10/18 12:53:01;;;;;;;0.80;0.40;;;;;;;;;;20726501;28;20222;-70
2022/10/18 13:03:08;;;;;;;1.90;0.63;;;;;;;;;;20726531;28;20221;-70
2022/10/18 13:13:27;;;;;;;0.67;0.40;;;;;;;;;;20742950;28;20280;-70
2022/10/18 13:23:42;;;;;;;0.83;0.43;;;;;;;;;;20741873;28;20245;-70
2022/10/18 13:33:44;;;;;;;0.80;0.60;;;;;;;;;;20725432;28;20223;-71
2022/10/18 13:43:52;;;;;;;1.40;0.57;;;;;;;;;;20733213;28;20280;-71
2022/10/18 13:54:03;;;;;;;1.10;0.70;;;;;;;;;;20736027;28;20226;-70
2022/10/18 14:04:23;;;;;;;3.57;0.80;;;19.10;99.90;;;;;;20739680;28;20225;-71
2022/10/18 14:14:28;;;;;;;1.57;0.80;;;;;;;;;;20736552;28;20221;-71
2022/10/18 14:24:31;;;;;;;1.13;0.50;;;19.10;99.90;;;;;;20739368;28;20227;-71
2022/10/18 14:34:33;;;;;;;4.43;0.97;;;;;;;;;;20697126;28;20230;-71
2022/10/18 14:44:35;;;;;;;2.40;0.80;;;;;;;;;;20659726;28;20229;-71
2022/10/18 14:54:37;;;;;;;1.13;0.60;;;18.90;99.90;;;;;;20657703;28;20214;-71
2022/10/18 15:04:39;;;;;;;1.00;0.60;;;;;;;;;;20867152;23;20738;-72
2022/10/18 15:14:41;;;;;;;1.00;0.60;;;;;;;;;;20747575;28;20204;-72
2022/10/18 15:25:10;;;;;;;0.60;0.30;;;18.80;99.90;;;;;;20779567;28;20650;-72
2022/10/18 15:35:18;;;;;;;0.20;0.20;;;18.80;99.90;;;;;;20742814;28;20214;-72
2022/10/18 15:45:31;;;;;;;0.20;0.20;;;;;;;;;;20804431;28;20234;-72
2022/10/18 15:55:34;;;;;;;1.27;0.70;;;;;;;;;;20808980;28;20225;-72
2022/10/18 16:05:36;;;;;;;0.47;0.30;;;18.80;99.90;;;;;;20798527;28;20235;-72
2022/10/18 16:15:39;;;;;;;0.33;0.30;;;;;;;;;;20777134;28;20233;-71
2022/10/18 16:25:41;;;;;;;0.20;0.20;;;;;;;;;;20776784;28;20220;-71
2022/10/18 16:35:43;;;;;;;0.17;0.17;;;;;;;;;;20805907;28;20228;-71
2022/10/18 16:45:46;;;;;;;0.20;0.20;;;;;;;;;;20779288;28;20272;-71
2022/10/18 16:55:50;;;;;;;0.20;0.20;;;;;;;;;;20768751;28;20232;-71
2022/10/18 17:05:53;;;;;;;0.40;0.23;;;;;;;;;;20775790;28;20219;-71
2022/10/18 17:15:55;;;;;;;0.20;0.20;;;;;;;;;;20757069;28;20213;-71
2022/10/18 17:25:57;;;;;;;0.83;0.50;;;;;;;;;;20761748;28;20234;-70
2022/10/18 17:36:00;;;;;;;0.20;0.20;;;;;;;;;;20763409;28;20306;-71
2022/10/18 17:46:02;;;;;;;0.60;0.33;;;;;;;;;;20753690;28;20228;-70
2022/10/18 17:56:04;;;;;;;0.67;0.40;;;;;;;;;;20761986;28;20225;-71
2022/10/18 18:06:37;;;;;;;0.50;0.40;;;;;;;;;;20775006;28;20275;-71
2022/10/18 18:16:40;;;;;;;0.53;0.50;;;;;;;;;;20758583;28;20224;-71
2022/10/18 18:26:43;;;;;;;1.23;0.47;;;;;;;;;;20772289;28;20233;-71
2022/10/18 18:36:45;;;;;;;0.80;0.60;;;;;;;;;;20809045;28;20223;-71
2022/10/18 18:46:47;;;;;;;0.53;0.30;;;;;;;;;;20841314;28;20217;-71
2022/10/18 18:56:50;;;;;;;1.03;0.50;;;;;;;;;;20808479;28;20220;-71
2022/10/18 19:06:52;;;;;;;0.87;0.60;;;;;;;;;;20747624;28;20326;-71
2022/10/18 19:17:00;;;;;;;0.93;0.50;;;;;;;;;;20749871;28;20262;-71
2022/10/18 19:27:03;;;;;;;3.27;0.80;;;;;;;;;;20774020;28;20229;-71
2022/10/18 19:37:08;;;;;;;1.13;0.50;;;;;;;;;;20743945;28;20219;-72
2022/10/18 19:47:11;;;;;;;1.23;0.53;;;;;;;;;;20804296;28;20706;-70
2022/10/18 19:57:13;;;;;;;0.80;0.50;;;;;;;;;;20778544;28;20275;-71
2022/10/18 20:07:15;;;;;;;2.03;1.00;;;;;;;;;;20768223;28;20299;-71
2022/10/18 20:17:19;;;;;;;1.20;0.87;;;;;;;;;;20769807;28;20204;-71
2022/10/18 20:27:21;;;;;;;1.03;0.57;;;;;;;;;;20773122;28;20278;-70
2022/10/18 20:37:24;;;;;;;1.40;0.67;;;;;;;;;;20775356;28;20218;-71
2022/10/18 20:47:25;;;;;;;2.43;1.07;;;;;;;;;;20807466;28;20212;-71
2022/10/18 20:57:29;;;;;;;1.17;0.73;;;;;;;;;;20809167;23;20600;-71
2022/10/18 21:07:31;;;;;;;5.03;0.87;;;;;;;;;;20858308;28;20239;-71
2022/10/18 21:17:33;;;;;;;2.17;1.10;;;;;;;;;;20808009;28;20213;-71
2022/10/18 21:27:35;;;;;;;2.93;1.10;;;;;;;;;;20804193;28;20220;-71
2022/10/18 21:37:37;;;;;;;3.43;0.97;;;;;;;;;;20827680;28;20313;-71
2022/10/18 21:47:39;;;;;;;2.07;0.90;;;;;;;;;;20803230;28;20305;-71
2022/10/18 21:57:41;;;;;;;4.63;1.63;;;;;;;;;;20823082;28;20236;-71
2022/10/18 22:07:43;;;;;;;2.50;1.40;;;;;;;;;;20823398;28;20706;-71
2022/10/18 22:17:44;;;;;;;3.47;1.50;;;;;;;;;;20802153;28;20672;-72
2022/10/18 22:27:46;;;;;;;1.77;1.17;;;;;;;;;;20817615;28;20215;-71
2022/10/18 22:37:48;;;;;;;2.33;1.17;;;;;;;;;;20801664;28;20690;-71
2022/10/18 22:47:49;;;;;;;2.57;1.33;;;;;;;;;;20821116;28;20268;-71
2022/10/18 22:57:51;;;;;;;2.67;1.47;;;;;;;;;;20816918;28;20242;-71
2022/10/18 23:07:53;;;;;;;2.10;1.50;;;;;;;;;;20830071;28;20264;-71
2022/10/18 23:17:56;;;;;;;2.47;1.67;;;;;;;;;;20817115;28;20206;-71
2022/10/18 23:27:58;;;;;;;2.87;1.47;;;;;;;;;;20805523;28;20233;-71
2022/10/18 23:38:00;;;;;;;3.60;2.37;;;;;;;;;;20818564;28;20723;-71
2022/10/18 23:48:02;;;;;;;2.50;1.70;;;;;;;;;;20815129;28;20243;-73
2022/10/18 23:58:04;;;;;;;5.70;2.43;;;;;;;;;;20811473;28;20292;-72
